Time;durP1;ratioP1;P1;durP2;ratioP2;P2;SDS_P1;SDS_P2;PMS_P1;PMS_P2;Temp;Humidity;BMP_temperature;BMP_pressure;BME280_temperature;BME280_humidity;BME280_pressure;Samples;Min_cycle;Max_cycle;Signal;HPM_P1;HPM_P2
2023/02/06 00:01:57;;;;;;;5.45;2.75;;;;;;;;;;5017554;28;20249;-60
2023/02/06 00:04:23;;;;;;;2.65;1.88;;;;;;;;;;5015797;28;20162;-62
2023/02/06 00:06:49;;;;;;;3.70;1.75;;;;;;;;;;5014700;28;20464;-63
2023/02/06 00:09:16;;;;;;;1.90;1.70;;;;;;;;;;5014837;28;20175;-62
2023/02/06 00:11:41;;;;;;;2.85;1.90;;;;;;;;;;5014544;28;20174;-62
2023/02/06 00:14:07;;;;;;;1.90;1.50;;;;;;;;;;5013655;28;20223;-62
2023/02/06 00:16:34;;;;;;;2.72;1.50;;;;;;;;;;5013527;28;20261;-62
2023/02/06 00:19:00;;;;;;;4.75;1.70;;;;;;;;;;5013559;28;20185;-63
2023/02/06 00:21:27;;;;;;;4.00;1.80;;;;;;;;;;5013138;28;20281;-58
2023/02/06 00:23:54;;;;;;;2.88;1.88;;;;;;;;;;5013336;28;20178;-62
2023/02/06 00:26:20;;;;;;;2.55;1.48;;;;;;;;;;5012971;28;20179;-62
2023/02/06 00:28:46;;;;;;;1.70;1.60;;;;;;;;;;5012947;28;20224;-63
2023/02/06 00:31:12;;;;;;;4.03;1.88;;;;;;;;;;5015736;28;20601;-63
2023/02/06 00:33:39;;;;;;;3.50;1.70;;;;;;;;;;5016405;28;20215;-63
2023/02/06 00:36:06;;;;;;;3.40;1.80;;;;;;;;;;5016309;28;20212;-63
2023/02/06 00:38:32;;;;;;;1.65;1.55;;;;;;;;;;5016248;28;20162;-63
2023/02/06 00:40:58;;;;;;;2.15;1.30;;;;;;;;;;5016265;28;20162;-63
2023/02/06 00:43:25;;;;;;;1.60;1.50;;;;;;;;;;5015166;28;20221;-62
2023/02/06 00:45:58;;;;;;;2.63;1.50;;;;;;;;;;5016044;28;20166;-62
2023/02/06 00:48:25;;;;;;;1.50;1.35;;;;;;;;;;5015728;28;20171;-62
2023/02/06 00:50:52;;;;;;;1.52;1.42;;;;;;;;;;5015867;28;20166;-63
2023/02/06 00:53:18;;;;;;;2.22;1.70;;;;;;;;;;5015608;28;20538;-62
2023/02/06 00:55:44;;;;;;;3.58;1.90;;;;;;;;;;5015550;28;20174;-62
2023/02/06 00:58:10;;;;;;;1.92;1.70;;;;;;;;;;5016186;28;20289;-62
2023/02/06 01:00:36;;;;;;;4.05;1.90;;;;;;;;;;5015254;28;20643;-63
2023/02/06 01:03:02;;;;;;;3.55;1.63;;;;;;;;;;5014741;28;20585;-61
2023/02/06 01:05:28;;;;;;;2.10;1.90;;;;;;;;;;5015648;28;20173;-63
2023/02/06 01:07:56;;;;;;;3.30;1.92;;;;;;;;;;5015845;28;20262;-62
2023/02/06 01:10:22;;;;;;;2.65;2.08;;;;;;;;;;5015126;28;20632;-63
2023/02/06 01:12:48;;;;;;;3.35;2.58;;;;;;;;;;5015812;28;20239;-62
2023/02/06 01:15:14;;;;;;;3.08;2.13;;;;;;;;;;5016081;28;20613;-63
2023/02/06 01:17:40;;;;;;;2.58;2.30;;;;;;;;;;5015203;28;20167;-63
2023/02/06 01:20:07;;;;;;;4.13;2.28;;;;;;;;;;5015479;28;20198;-64
2023/02/06 01:22:34;;;;;;;4.10;2.50;;;;;;;;;;5015672;28;20209;-63
2023/02/06 01:25:00;;;;;;;3.05;2.63;;;;;;;;;;5015580;28;20245;-63
2023/02/06 01:27:26;;;;;;;3.20;2.58;;;;;;;;;;5015506;28;20194;-62
2023/02/06 01:29:54;;;;;;;2.78;2.47;;;;;;;;;;5015137;28;20569;-63
2023/02/06 01:32:20;;;;;;;3.03;2.38;;;;;;;;;;5015497;28;20192;-62
2023/02/06 01:34:46;;;;;;;3.72;2.33;;;;;;;;;;5014957;28;20600;-61
2023/02/06 01:37:12;;;;;;;3.25;2.60;;;;;;;;;;5014901;28;20181;-63
2023/02/06 01:39:37;;;;;;;3.00;2.63;;;;;;;;;;5014845;28;20181;-63
2023/02/06 01:42:04;;;;;;;3.25;2.38;;;;;;;;;;5013972;28;20254;-62
2023/02/06 01:44:30;;;;;;;4.43;2.55;;;;;;;;;;5014830;28;20612;-63
2023/02/06 01:46:56;;;;;;;4.10;2.53;;;;;;;;;;5015651;28;20162;-61
2023/02/06 01:49:37;;;;;;;4.32;2.55;;;;;;;;;;5014182;28;20181;-63
2023/02/06 01:52:05;;;;;;;3.33;2.70;;;;;;;;;;5014566;28;20657;-62
2023/02/06 01:54:31;;;;;;;5.93;3.08;;;;;;;;;;5014700;28;20255;-62
2023/02/06 01:57:01;;;;;;;3.20;2.60;;;;;;;;;;5014748;28;20170;-64
2023/02/06 01:59:27;;;;;;;3.28;2.60;;;;;;;;;;5028072;28;20256;-63
2023/02/06 02:01:53;;;;;;;3.75;2.67;;;;;;;;;;5033144;28;20186;-62
2023/02/06 02:04:21;;;;;;;4.05;3.25;;;;;;;;;;5025738;28;20265;-61
2023/02/06 02:06:52;;;;;;;3.83;2.50;;;;;;;;;;5015955;28;20188;-63
2023/02/06 02:09:19;;;;;;;3.70;2.85;;;;;;;;;;5014937;28;20766;-63
2023/02/06 02:11:45;;;;;;;4.00;2.90;;;;;;;;;;5014638;28;20257;-62
2023/02/06 02:14:13;;;;;;;6.03;2.60;;;;;;;;;;5014906;28;20204;-63
2023/02/06 02:16:59;;;;;;;4.10;3.10;;;;;;;;;;5014441;28;20170;-63
2023/02/06 02:19:31;;;;;;;3.88;2.85;;;;;;;;;;5014270;28;20554;-62
2023/02/06 02:22:17;;;;;;;4.45;2.85;;;;;;;;;;5014169;28;20222;-60
2023/02/06 02:24:49;;;;;;;3.80;2.90;;;;;;;;;;5014642;28;20216;-60
2023/02/06 02:27:38;;;;;;;4.00;2.78;;;;;;;;;;5014308;28;20163;-60
2023/02/06 02:30:16;;;;;;;4.90;3.10;;;;;;;;;;5014290;28;20529;-63
2023/02/06 02:33:01;;;;;;;4.90;2.80;;;;;;;;;;5014273;28;20245;-63
2023/02/06 02:35:40;;;;;;;4.60;2.50;;;;;;;;;;5014589;28;20162;-61
2023/02/06 02:38:06;;;;;;;2.92;2.63;;;;;;;;;;5014240;28;20215;-62
2023/02/06 02:41:04;;;;;;;3.03;2.53;;;;;;;;;;5014228;28;20534;-62
2023/02/06 02:43:38;;;;;;;3.95;2.70;;;;;;;;;;5095115;28;20207;-61
2023/02/06 02:46:14;;;;;;;3.92;2.85;;;;;;;;;;5095084;28;20180;-63
2023/02/06 02:48:41;;;;;;;4.32;2.63;;;;;;;;;;5095325;28;20448;-62
2023/02/06 02:51:08;;;;;;;4.45;2.90;;;;;;;;;;5095042;28;20703;-63
2023/02/06 02:53:34;;;;;;;7.85;2.78;;;;;;;;;;5095011;28;20183;-62
2023/02/06 02:56:00;;;;;;;3.92;2.42;;;;;;;;;;5094908;28;20171;-62
2023/02/06 02:58:29;;;;;;;4.43;2.65;;;;;;;;;;5094940;28;20167;-63
2023/02/06 03:01:03;;;;;;;3.40;2.58;;;;;;;;;;5094850;28;20183;-61
2023/02/06 03:03:29;;;;;;;2.63;2.38;;;;;;;;;;5094823;28;20195;-64
2023/02/06 03:05:55;;;;;;;4.70;2.90;;;;;;;;;;5094811;28;20213;-61
2023/02/06 03:08:26;;;;;;;2.40;2.10;;;;;;;;;;5094725;28;20164;-63
2023/02/06 03:11:09;;;;;;;2.33;2.13;;;;;;;;;;5094552;28;20156;-63
2023/02/06 03:13:39;;;;;;;2.58;1.95;;;;;;;;;;5095292;28;20179;-63
2023/02/06 03:16:12;;;;;;;3.00;2.33;;;;;;;;;;5094556;28;20625;-63
2023/02/06 03:18:42;;;;;;;2.70;2.00;;;;;;;;;;5067680;28;20197;-62
2023/02/06 03:21:14;;;;;;;3.20;2.25;;;;;;;;;;5026771;28;20166;-63
2023/02/06 03:23:42;;;;;;;3.80;2.60;;;;;;;;;;5033137;28;20149;-63
2023/02/06 03:26:10;;;;;;;4.55;3.03;;;;;;;;;;5030754;28;20253;-63
2023/02/06 03:28:38;;;;;;;5.35;3.08;;;;;;;;;;5027334;28;20171;-63
2023/02/06 03:31:07;;;;;;;4.28;3.30;;;;;;;;;;5028098;28;20190;-63
2023/02/06 03:33:36;;;;;;;4.35;3.08;;;;;;;;;;5028432;28;20179;-63
2023/02/06 03:36:04;;;;;;;5.93;3.58;;;;;;;;;;5022971;28;20174;-63
2023/02/06 03:38:30;;;;;;;4.88;3.20;;;;;;;;;;5024271;28;20178;-63
2023/02/06 03:40:57;;;;;;;6.72;3.88;;;;;;;;;;5020918;28;20174;-63
2023/02/06 03:43:24;;;;;;;5.40;3.78;;;;;;;;;;5017789;28;20236;-62
2023/02/06 03:45:52;;;;;;;5.47;3.05;;;;;;;;;;5016036;28;20166;-63
2023/02/06 03:48:26;;;;;;;3.70;3.10;;;;;;;;;;5016036;28;20181;-62
2023/02/06 03:50:54;;;;;;;3.90;3.22;;;;;;;;;;5016135;28;20233;-62
2023/02/06 03:53:21;;;;;;;3.90;3.10;;;;;;;;;;5015581;28;20619;-63
2023/02/06 03:55:48;;;;;;;4.00;3.13;;;;;;;;;;5015071;28;20175;-62
2023/02/06 03:58:14;;;;;;;5.47;2.85;;;;;;;;;;5015028;28;20171;-62
2023/02/06 04:00:41;;;;;;;4.05;2.95;;;;;;;;;;5013683;28;20200;-62
2023/02/06 04:03:08;;;;;;;3.90;3.00;;;;;;;;;;5013496;28;20185;-63
2023/02/06 04:05:34;;;;;;;4.05;2.97;;;;;;;;;;5012923;28;20166;-63
2023/02/06 04:08:00;;;;;;;3.97;2.83;;;;;;;;;;5013998;28;20468;-62
2023/02/06 04:10:26;;;;;;;5.00;3.20;;;;;;;;;;5013675;28;20489;-63
2023/02/06 04:12:52;;;;;;;4.18;3.42;;;;;;;;;;5012944;28;20166;-63
2023/02/06 04:15:18;;;;;;;5.25;3.15;;;;;;;;;;5012685;28;20331;-61
2023/02/06 04:17:44;;;;;;;4.55;3.15;;;;;;;;;;5013008;28;20185;-63
2023/02/06 04:20:10;;;;;;;5.60;3.53;;;;;;;;;;5013165;28;20501;-63
2023/02/06 04:22:36;;;;;;;3.97;3.25;;;;;;;;;;5012935;28;20273;-63
2023/02/06 04:25:02;;;;;;;5.75;3.53;;;;;;;;;;5012919;28;20173;-63
2023/02/06 04:27:28;;;;;;;4.78;3.47;;;;;;;;;;5013309;28;20182;-62
2023/02/06 04:29:54;;;;;;;5.20;3.65;;;;;;;;;;5012532;28;20174;-63
2023/02/06 04:32:20;;;;;;;4.75;3.28;;;;;;;;;;5013173;28;20193;-61
2023/02/06 04:34:46;;;;;;;4.90;3.60;;;;;;;;;;5013700;28;20640;-62
2023/02/06 04:37:12;;;;;;;5.10;3.85;;;;;;;;;;5012913;28;20522;-60
2023/02/06 04:39:38;;;;;;;6.38;3.80;;;;;;;;;;5011848;28;20178;-62
2023/02/06 04:42:05;;;;;;;3.88;3.47;;;;;;;;;;5012697;28;20190;-63
2023/02/06 04:44:32;;;;;;;5.95;3.17;;;;;;;;;;5013000;28;20175;-63
2023/02/06 04:46:58;;;;;;;3.92;3.40;;;;;;;;;;5011632;28;20230;-61
2023/02/06 04:49:25;;;;;;;4.90;3.83;;;;;;;;;;5012914;28;20261;-61
2023/02/06 04:51:51;;;;;;;3.92;3.17;;;;;;;;;;5012904;28;20212;-61
2023/02/06 04:54:17;;;;;;;3.97;2.97;;;;;;;;;;5014076;28;20178;-61
2023/02/06 04:56:44;;;;;;;5.25;3.53;;;;;;;;;;5014538;28;20202;-62
2023/02/06 04:59:10;;;;;;;4.38;3.38;;;;;;;;;;5025097;28;20174;-62
2023/02/06 05:01:36;;;;;;;6.22;3.20;;;;;;;;;;5012951;28;20223;-62
2023/02/06 05:04:02;;;;;;;4.70;3.13;;;;;;;;;;5011115;28;20178;-61
2023/02/06 05:06:30;;;;;;;4.22;2.90;;;;;;;;;;5012260;28;20170;-62
2023/02/06 05:08:56;;;;;;;4.95;2.70;;;;;;;;;;5011715;28;20231;-61
2023/02/06 05:11:22;;;;;;;4.57;3.47;;;;;;;;;;5012311;28;20205;-62
2023/02/06 05:13:48;;;;;;;5.85;3.20;;;;;;;;;;5012023;28;20538;-62
2023/02/06 05:16:15;;;;;;;3.40;2.80;;;;;;;;;;5013814;28;20488;-61
2023/02/06 05:18:43;;;;;;;3.53;3.00;;;;;;;;;;5015358;28;20249;-62
2023/02/06 05:21:09;;;;;;;3.70;2.95;;;;;;;;;;5015524;28;20179;-62
2023/02/06 05:23:35;;;;;;;3.90;3.08;;;;;;;;;;5014884;28;20296;-63
2023/02/06 05:26:01;;;;;;;3.92;2.55;;;;;;;;;;5015156;28;20166;-62
2023/02/06 05:28:28;;;;;;;4.47;3.22;;;;;;;;;;5015478;28;20600;-62
2023/02/06 05:30:55;;;;;;;3.83;2.47;;;;;;;;;;5016019;28;20174;-62
2023/02/06 05:33:20;;;;;;;2.83;2.40;;;;;;;;;;5015256;28;20181;-61
2023/02/06 05:35:46;;;;;;;3.22;2.20;;;;;;;;;;5015769;28;20476;-61
2023/02/06 05:38:12;;;;;;;5.68;2.53;;;;;;;;;;5015073;28;20171;-62
2023/02/06 05:40:38;;;;;;;3.15;2.35;;;;;;;;;;5014992;28;20166;-64
2023/02/06 05:43:05;;;;;;;3.03;2.58;;;;;;;;;;5014940;28;20285;-64
2023/02/06 05:45:31;;;;;;;3.20;2.40;;;;;;;;;;5013898;28;20544;-62
2023/02/06 05:47:57;;;;;;;3.63;2.15;;;;;;;;;;5015709;28;20183;-63
2023/02/06 05:50:23;;;;;;;2.83;2.30;;;;;;;;;;5014713;28;20158;-61
2023/02/06 05:52:49;;;;;;;4.50;2.45;;;;;;;;;;5014629;28;20604;-63
2023/02/06 05:55:17;;;;;;;2.17;1.77;;;;;;;;;;5014786;28;20258;-61
2023/02/06 05:57:43;;;;;;;2.63;1.95;;;;;;;;;;5015060;28;20182;-62
2023/02/06 06:00:09;;;;;;;4.20;1.90;;;;;;;;;;5014624;28;20242;-63
2023/02/06 06:02:37;;;;;;;2.55;1.70;;;;;;;;;;5014852;28;20198;-62
2023/02/06 06:05:03;;;;;;;2.67;1.90;;;;;;;;;;5015388;28;20182;-61
2023/02/06 06:07:29;;;;;;;3.70;2.00;;;;;;;;;;5014795;28;20580;-60
2023/02/06 06:09:55;;;;;;;2.65;2.15;;;;;;;;;;5014877;28;20170;-61
2023/02/06 06:12:21;;;;;;;2.42;1.90;;;;;;;;;;5014720;28;20508;-63
2023/02/06 06:14:48;;;;;;;2.38;2.00;;;;;;;;;;5014659;28;20167;-62
2023/02/06 06:17:14;;;;;;;3.38;2.08;;;;;;;;;;5014910;28;20178;-62
2023/02/06 06:19:40;;;;;;;2.63;1.85;;;;;;;;;;5014604;28;20162;-61
2023/02/06 06:22:06;;;;;;;4.30;2.30;;;;;;;;;;5014560;28;20453;-63
2023/02/06 06:24:33;;;;;;;4.72;1.90;;;;;;;;;;5014577;28;20163;-63
2023/02/06 06:26:59;;;;;;;3.13;1.65;;;;;;;;;;5013722;28;20680;-62
2023/02/06 06:29:25;;;;;;;2.85;2.28;;;;;;;;;;5014496;28;20182;-63
2023/02/06 06:31:51;;;;;;;3.78;1.80;;;;;;;;;;5014368;28;20170;-62
2023/02/06 06:34:17;;;;;;;2.08;1.88;;;;;;;;;;5014268;28;20249;-60
2023/02/06 06:36:43;;;;;;;3.28;2.30;;;;;;;;;;5014781;28;20189;-62
2023/02/06 06:39:09;;;;;;;4.10;2.33;;;;;;;;;;5013280;28;20254;-63
2023/02/06 06:41:37;;;;;;;4.68;2.25;;;;;;;;;;5014364;28;20293;-61
2023/02/06 06:44:03;;;;;;;5.20;2.28;;;;;;;;;;5014175;28;20170;-64
2023/02/06 06:46:29;;;;;;;3.15;2.08;;;;;;;;;;5014078;28;20166;-62
2023/02/06 06:48:55;;;;;;;3.78;2.28;;;;;;;;;;5014003;28;20635;-62
2023/02/06 06:51:21;;;;;;;4.03;2.40;;;;;;;;;;5013928;28;20167;-61
2023/02/06 06:53:47;;;;;;;3.75;2.28;;;;;;;;;;5014562;28;20166;-63
2023/02/06 06:56:14;;;;;;;4.95;2.67;;;;;;;;;;5014138;28;20178;-62
2023/02/06 06:58:41;;;;;;;4.90;2.53;;;;;;;;;;5014203;28;20181;-62
2023/02/06 07:01:07;;;;;;;4.15;2.22;;;;;;;;;;5013669;28;20612;-63
2023/02/06 07:03:34;;;;;;;4.97;2.78;;;;;;;;;;5013320;28;20611;-62
2023/02/06 07:05:59;;;;;;;4.97;3.10;;;;;;;;;;5012601;28;20407;-61
2023/02/06 07:08:28;;;;;;;5.32;2.60;;;;;;;;;;5014008;28;20227;-62
2023/02/06 07:10:54;;;;;;;3.83;2.60;;;;;;;;;;5013128;28;20235;-62
2023/02/06 07:13:22;;;;;;;3.90;2.75;;;;;;;;;;5013908;28;20174;-62
2023/02/06 07:15:48;;;;;;;7.15;2.75;;;;;;;;;;5014413;28;20500;-62
2023/02/06 07:18:13;;;;;;;3.33;2.30;;;;;;;;;;5017523;28;20169;-61
2023/02/06 07:20:39;;;;;;;6.18;2.78;;;;;;;;;;5031937;28;20181;-61
2023/02/06 07:23:05;;;;;;;4.30;2.95;;;;;;;;;;5028605;28;20228;-62
2023/02/06 07:25:32;;;;;;;5.40;4.18;;;;;;;;;;5027927;28;20186;-62
2023/02/06 07:27:58;;;;;;;5.10;2.80;;;;;;;;;;5020967;28;20177;-62
2023/02/06 07:30:24;;;;;;;5.25;4.00;;;;;;;;;;5019010;28;20588;-62
2023/02/06 07:32:51;;;;;;;5.28;2.70;;;;;;;;;;5020080;28;20194;-62
2023/02/06 07:35:17;;;;;;;5.10;3.08;;;;;;;;;;5016457;28;20170;-62
2023/02/06 07:37:43;;;;;;;3.83;2.80;;;;;;;;;;5015988;28;20274;-63
2023/02/06 07:40:10;;;;;;;4.97;3.40;;;;;;;;;;5016597;28;20443;-63
2023/02/06 07:42:35;;;;;;;6.20;3.22;;;;;;;;;;5017267;28;20198;-62
2023/02/06 07:45:01;;;;;;;6.55;3.38;;;;;;;;;;5015405;28;20174;-62
2023/02/06 07:47:27;;;;;;;5.00;3.42;;;;;;;;;;5018061;28;20166;-62
2023/02/06 07:49:53;;;;;;;7.75;2.95;;;;;;;;;;5019487;28;20167;-61
2023/02/06 07:52:20;;;;;;;6.53;3.77;;;;;;;;;;5015974;28;20399;-60
2023/02/06 07:54:46;;;;;;;5.38;3.38;;;;;;;;;;5014225;28;20742;-60
2023/02/06 07:57:12;;;;;;;6.32;3.08;;;;;;;;;;5013807;28;20220;-62
2023/02/06 07:59:38;;;;;;;5.00;3.83;;;;;;;;;;5012151;28;20431;-59
2023/02/06 08:02:04;;;;;;;3.05;2.45;;;;;;;;;;5013490;28;20243;-62
2023/02/06 08:04:34;;;;;;;4.47;3.35;;;;;;;;;;5013468;28;20158;-62
2023/02/06 08:07:01;;;;;;;6.47;3.08;;;;;;;;;;5013483;28;20182;-60
2023/02/06 08:09:27;;;;;;;2.65;2.35;;;;;;;;;;5012847;28;20673;-62
2023/02/06 08:11:52;;;;;;;3.83;2.63;;;;;;;;;;5013054;28;20175;-61
2023/02/06 08:14:18;;;;;;;2.97;2.45;;;;;;;;;;5013315;28;20628;-63
2023/02/06 08:16:44;;;;;;;4.57;2.55;;;;;;;;;;5013153;28;20609;-62
2023/02/06 08:19:11;;;;;;;3.47;2.30;;;;;;;;;;5012939;28;20674;-62
2023/02/06 08:21:37;;;;;;;3.35;2.50;;;;;;;;;;5013005;28;20174;-61
2023/02/06 08:24:04;;;;;;;3.67;2.03;;;;;;;;;;5012809;28;20159;-60
2023/02/06 08:26:30;;;;;;;5.37;2.80;;;;;;;;;;5011961;28;20414;-62
2023/02/06 08:28:56;;;;;;;5.70;2.88;;;;;;;;;;5012985;28;20436;-62
2023/02/06 08:31:31;;;;;;;2.42;1.98;;;;;;;;;;5012967;28;20231;-62
2023/02/06 08:33:57;;;;;;;3.75;1.92;;;;;;;;;;5011775;28;20226;-62
2023/02/06 08:36:24;;;;;;;2.55;2.03;;;;;;;;;;5012634;28;20166;-62
2023/02/06 08:38:51;;;;;;;3.63;1.90;;;;;;;;;;5012743;28;20515;-62
2023/02/06 08:41:17;;;;;;;2.35;1.83;;;;;;;;;;5012710;28;20170;-63
2023/02/06 08:43:44;;;;;;;2.88;1.75;;;;;;;;;;5012900;28;20215;-63
2023/02/06 08:46:10;;;;;;;2.10;1.67;;;;;;;;;;5012450;28;20162;-63
2023/02/06 08:48:35;;;;;;;3.95;1.95;;;;;;;;;;5012403;28;20166;-62
2023/02/06 08:51:03;;;;;;;3.65;1.88;;;;;;;;;;5013918;28;20198;-63
2023/02/06 08:53:29;;;;;;;3.47;1.65;;;;;;;;;;5015875;28;20175;-63
2023/02/06 08:55:59;;;;;;;3.22;1.92;;;;;;;;;;5015859;28;20604;-63
2023/02/06 08:58:25;;;;;;;2.55;1.65;;;;;;;;;;5015799;28;20175;-63
2023/02/06 09:00:51;;;;;;;3.50;2.60;;;;;;;;;;5014605;28;20418;-62
2023/02/06 09:03:17;;;;;;;5.18;2.75;;;;;;;;;;5016504;28;20210;-63
2023/02/06 09:05:43;;;;;;;2.80;2.38;;;;;;;;;;5015788;28;20509;-63
2023/02/06 09:08:09;;;;;;;4.63;1.80;;;;;;;;;;5015765;28;20165;-63
2023/02/06 09:10:36;;;;;;;3.33;1.83;;;;;;;;;;5015802;28;20306;-61
2023/02/06 09:13:03;;;;;;;4.70;2.15;;;;;;;;;;5015358;28;20170;-62
2023/02/06 09:15:29;;;;;;;3.00;2.00;;;;;;;;;;5014729;28;20437;-63
2023/02/06 09:17:54;;;;;;;4.28;2.63;;;;;;;;;;5014428;28;20490;-63
2023/02/06 09:20:21;;;;;;;5.32;3.97;;;;;;;;;;5014916;28;20411;-63
2023/02/06 09:22:47;;;;;;;6.32;4.63;;;;;;;;;;5015066;28;20293;-61
2023/02/06 09:25:13;;;;;;;5.35;3.88;;;;;;;;;;5015363;28;20170;-63
2023/02/06 09:27:39;;;;;;;4.50;3.90;;;;;;;;;;5014592;28;20542;-63
2023/02/06 09:30:05;;;;;;;5.53;3.60;;;;;;;;;;5015575;28;20536;-61
2023/02/06 09:32:31;;;;;;;6.07;3.67;;;;;;;;;;5015334;28;20201;-61
2023/02/06 09:34:57;;;;;;;5.07;3.67;;;;;;;;;;5015434;28;20175;-61
2023/02/06 09:37:23;;;;;;;7.22;3.88;;;;;;;;;;5015687;28;20171;-63
2023/02/06 09:39:49;;;;;;;8.38;3.60;;;;;;;;;;5015715;28;20195;-62
2023/02/06 09:42:35;;;;;;;4.13;3.58;;;;;;;;;;5015359;28;20553;-61
2023/02/06 09:45:21;;;;;;;5.35;3.60;;;;;;;;;;5015582;28;20502;-61
2023/02/06 09:47:50;;;;;;;4.68;3.25;;;;;;;;;;5015137;28;20211;-61
2023/02/06 09:50:16;;;;;;;5.90;4.20;;;;;;;;;;5015367;28;20159;-59
2023/02/06 09:52:51;;;;;;;4.68;2.97;;;;;;;;;;5015249;28;20515;-62
2023/02/06 09:55:17;;;;;;;3.40;2.83;;;;;;;;;;5015165;28;20177;-62
2023/02/06 09:57:49;;;;;;;4.57;2.83;;;;;;;;;;5014757;28;20166;-62
2023/02/06 10:00:36;;;;;;;5.03;3.25;;;;;;;;;;5014876;28;20186;-62
2023/02/06 10:03:10;;;;;;;5.65;3.05;;;;;;;;;;5013960;28;20193;-62
2023/02/06 10:05:36;;;;;;;5.47;3.50;;;;;;;;;;5014273;28;20411;-62
2023/02/06 10:08:17;;;;;;;4.03;3.57;;;;;;;;;;5013941;28;20407;-63
2023/02/06 10:10:44;;;;;;;4.35;3.28;;;;;;;;;;5014385;28;20397;-63
2023/02/06 10:13:22;;;;;;;5.25;3.42;;;;;;;;;;5014526;28;20185;-64
2023/02/06 10:15:49;;;;;;;3.72;3.35;;;;;;;;;;5014656;28;20154;-60
2023/02/06 10:18:19;;;;;;;6.53;3.22;;;;;;;;;;5015436;28;20269;-63
2023/02/06 10:21:11;;;;;;;4.43;3.50;;;;;;;;;;5014398;28;20537;-59
2023/02/06 10:23:49;;;;;;;4.63;3.25;;;;;;;;;;5017759;28;20217;-62
2023/02/06 10:26:17;;;;;;;4.70;3.55;;;;;;;;;;5016051;28;20159;-63
2023/02/06 10:28:50;;;;;;;4.50;3.28;;;;;;;;;;5017485;28;20689;-63
2023/02/06 10:31:25;;;;;;;6.45;3.60;;;;;;;;;;5015701;28;20265;-62
2023/02/06 10:34:09;;;;;;;4.35;3.47;;;;;;;;;;5014844;28;20189;-63
2023/02/06 10:36:44;;;;;;;4.65;3.33;;;;;;;;;;5014640;28;20166;-63
2023/02/06 10:39:29;;;;;;;3.90;3.00;;;;;;;;;;5014527;28;20170;-62
2023/02/06 10:42:14;;;;;;;4.80;2.70;;;;;;;;;;5015161;28;20190;-63
2023/02/06 10:45:00;;;;;;;3.65;2.95;;;;;;;;;;5014652;28;20165;-62
2023/02/06 10:47:35;;;;;;;4.35;2.90;;;;;;;;;;5014368;28;20157;-63
2023/02/06 10:50:13;;;;;;;4.15;2.78;;;;;;;;;;5015297;28;20184;-61
2023/02/06 10:52:39;;;;;;;5.45;3.00;;;;;;;;;;5014928;28;20166;-62
2023/02/06 10:55:33;;;;;;;3.97;3.10;;;;;;;;;;5015367;28;20166;-61
2023/02/06 10:58:03;;;;;;;5.22;3.35;;;;;;;;;;5016881;28;20154;-60
2023/02/06 11:00:29;;;;;;;3.97;2.97;;;;;;;;;;5016359;28;20187;-62
2023/02/06 11:03:00;;;;;;;4.30;3.20;;;;;;;;;;5016106;28;20517;-60
2023/02/06 11:05:28;;;;;;;4.35;3.40;;;;;;;;;;5016503;28;20174;-61
2023/02/06 11:07:55;;;;;;;6.28;3.22;;;;;;;;;;5016555;28;20174;-62
2023/02/06 11:10:25;;;;;;;5.57;3.58;;;;;;;;;;5014480;28;20173;-62
2023/02/06 11:13:03;;;;;;;4.28;3.17;;;;;;;;;;5014079;28;20170;-62
2023/02/06 11:15:40;;;;;;;6.47;3.13;;;;;;;;;;5013715;28;20269;-62
2023/02/06 11:18:10;;;;;;;4.18;3.25;;;;;;;;;;5013151;28;20176;-62
2023/02/06 11:20:37;;;;;;;6.20;3.92;;;;;;;;;;5013636;28;20411;-63
2023/02/06 11:23:13;;;;;;;4.87;4.00;;;;;;;;;;5013260;28;20449;-63
2023/02/06 11:25:41;;;;;;;5.85;3.10;;;;;;;;;;5013916;28;20158;-62
2023/02/06 11:28:12;;;;;;;5.75;3.35;;;;;;;;;;5013860;28;20188;-63
2023/02/06 11:30:40;;;;;;;4.78;3.00;;;;;;;;;;5013929;28;20660;-63
2023/02/06 11:33:18;;;;;;;4.95;3.60;;;;;;;;;;5014514;28;20639;-62
2023/02/06 11:35:53;;;;;;;5.97;3.90;;;;;;;;;;5013609;28;20165;-63
2023/02/06 11:38:21;;;;;;;4.68;3.25;;;;;;;;;;5013284;28;20154;-63
2023/02/06 11:41:04;;;;;;;4.85;3.22;;;;;;;;;;5013754;28;20177;-63
2023/02/06 11:43:30;;;;;;;3.75;3.15;;;;;;;;;;5013912;28;20713;-61
2023/02/06 11:46:25;;;;;;;6.03;4.22;;;;;;;;;;5013830;28;20202;-62
2023/02/06 11:48:58;;;;;;;5.68;5.13;;;;;;;;;;5029099;28;20488;-63
2023/02/06 11:51:25;;;;;;;6.07;4.60;;;;;;;;;;5013331;28;20227;-62
2023/02/06 11:53:55;;;;;;;5.45;4.20;;;;;;;;;;5013092;28;20201;-61
2023/02/06 11:56:21;;;;;;;6.78;4.10;;;;;;;;;;5012543;28;20776;-62
2023/02/06 11:59:00;;;;;;;6.28;4.07;;;;;;;;;;5012878;28;20196;-63
2023/02/06 12:01:26;;;;;;;3.47;3.17;;;;;;;;;;5012762;28;20193;-62
2023/02/06 12:03:57;;;;;;;4.80;3.03;;;;;;;;;;5012997;28;20182;-63
2023/02/06 12:06:31;;;;;;;4.95;3.75;;;;;;;;;;5013301;28;20166;-63
2023/02/06 12:08:59;;;;;;;6.13;3.75;;;;;;;;;;5013303;28;20170;-62
2023/02/06 12:11:35;;;;;;;6.20;4.95;;;;;;;;;;5029812;28;20407;-63
2023/02/06 12:14:09;;;;;;;6.40;4.80;;;;;;;;;;5033003;28;20162;-63
2023/02/06 12:16:37;;;;;;;8.73;4.28;;;;;;;;;;5031213;28;20147;-63
2023/02/06 12:19:09;;;;;;;5.57;4.77;;;;;;;;;;5024898;28;20423;-62
2023/02/06 12:21:47;;;;;;;6.47;4.65;;;;;;;;;;5024745;28;20219;-62
2023/02/06 12:24:22;;;;;;;5.80;4.60;;;;;;;;;;5022943;28;20162;-63
2023/02/06 12:26:50;;;;;;;6.93;4.95;;;;;;;;;;5022199;28;20176;-63
2023/02/06 12:29:25;;;;;;;5.50;4.65;;;;;;;;;;5016825;28;20472;-62
2023/02/06 12:32:03;;;;;;;6.78;3.50;;;;;;;;;;5013340;28;20607;-62
2023/02/06 12:34:40;;;;;;;5.18;4.53;;;;;;;;;;5012240;28;20407;-63
2023/02/06 12:37:15;;;;;;;6.50;4.70;;;;;;;;;;5013155;28;20158;-63
2023/02/06 12:39:42;;;;;;;6.03;4.65;;;;;;;;;;5013048;28;20249;-63
2023/02/06 12:42:28;;;;;;;5.63;4.78;;;;;;;;;;5012876;28;20193;-63
2023/02/06 12:45:00;;;;;;;8.52;4.70;;;;;;;;;;5013182;28;20151;-62
2023/02/06 12:47:27;;;;;;;8.23;4.70;;;;;;;;;;5012701;28;20498;-63
2023/02/06 12:49:56;;;;;;;8.52;5.70;;;;;;;;;;5013091;28;20404;-62
2023/02/06 12:52:37;;;;;;;8.65;4.95;;;;;;;;;;5013551;28;20169;-64
2023/02/06 12:55:22;;;;;;;7.25;5.30;;;;;;;;;;5013271;28;20487;-62
2023/02/06 12:57:48;;;;;;;5.63;4.45;;;;;;;;;;5012495;28;20181;-64
2023/02/06 13:00:27;;;;;;;4.22;3.38;;;;;;;;;;5012225;28;20235;-64
2023/02/06 13:02:53;;;;;;;5.30;3.47;;;;;;;;;;5012063;28;20213;-63
2023/02/06 13:05:27;;;;;;;4.68;3.45;;;;;;;;;;5013206;28;20179;-61
2023/02/06 13:07:55;;;;;;;4.43;3.70;;;;;;;;;;5013060;28;20174;-63
2023/02/06 13:10:24;;;;;;;4.63;3.47;;;;;;;;;;5021403;28;20169;-63
2023/02/06 13:12:57;;;;;;;6.35;3.75;;;;;;;;;;5022188;28;20170;-64
2023/02/06 13:15:28;;;;;;;4.03;3.55;;;;;;;;;;5016059;28;20252;-62
2023/02/06 13:17:54;;;;;;;3.67;3.08;;;;;;;;;;5012792;28;20174;-63
2023/02/06 13:20:22;;;;;;;4.53;3.65;;;;;;;;;;5011988;28;20178;-61
2023/02/06 13:22:50;;;;;;;4.10;3.63;;;;;;;;;;5012265;28;20438;-62
2023/02/06 13:25:28;;;;;;;5.38;3.60;;;;;;;;;;5012806;28;20418;-64
2023/02/06 13:27:57;;;;;;;4.35;3.22;;;;;;;;;;5012755;28;20625;-63
2023/02/06 13:30:43;;;;;;;4.90;2.75;;;;;;;;;;5012847;28;20170;-62
2023/02/06 13:33:14;;;;;;;5.57;3.30;;;;;;;;;;5011074;28;20757;-62
2023/02/06 13:36:00;;;;;;;7.82;3.22;;;;;;;;;;5012114;28;20530;-63
2023/02/06 13:38:29;;;;;;;4.83;3.20;;;;;;;;;;5013043;28;20407;-62
2023/02/06 13:41:22;;;;;;;4.18;2.88;;;;;;;;;;5015390;28;20170;-63
2023/02/06 13:43:54;;;;;;;4.18;3.08;;;;;;;;;;5019261;28;20210;-63
2023/02/06 13:46:22;;;;;;;5.95;3.13;;;;;;;;;;5015237;28;20188;-63
2023/02/06 13:48:52;;;;;;;3.17;2.88;;;;;;;;;;5015192;28;20174;-63
2023/02/06 13:51:37;;;;;;;4.22;2.85;;;;;;;;;;5014359;28;20174;-62
2023/02/06 13:54:06;;;;;;;4.72;2.92;;;;;;;;;;5015486;28;20262;-64
2023/02/06 13:56:38;;;;;;;6.00;2.60;;;;;;;;;;5015551;28;20166;-64
2023/02/06 13:59:09;;;;;;;3.80;2.72;;;;;;;;;;5015529;28;20553;-63
2023/02/06 14:01:35;;;;;;;3.20;2.22;;;;;;;;;;5015047;28;20159;-63
2023/02/06 14:04:06;;;;;;;4.80;2.95;;;;;;;;;;5014526;28;20502;-60
2023/02/06 14:06:35;;;;;;;3.93;2.93;;;;;;;;;;5014923;28;20399;-63
2023/02/06 14:09:29;;;;;;;5.07;2.60;;;;;;;;;;5015040;28;20173;-63
2023/02/06 14:14:45;;;;;;;6.88;3.28;;;;;;;;;;5015293;28;20204;-62
2023/02/06 14:17:33;;;;;;;5.45;3.50;;;;;;;;;;5014789;28;20170;-63
2023/02/06 14:20:03;;;;;;;5.53;3.47;;;;;;;;;;5015023;28;20462;-61
2023/02/06 14:22:46;;;;;;;4.35;3.05;;;;;;;;;;5014973;28;20522;-63
2023/02/06 14:25:15;;;;;;;4.68;3.67;;;;;;;;;;5016868;28;20404;-62
2023/02/06 14:27:55;;;;;;;3.90;3.30;;;;;;;;;;5020267;28;20178;-63
2023/02/06 14:30:40;;;;;;;4.80;3.10;;;;;;;;;;5020439;28;20186;-63
2023/02/06 14:33:14;;;;;;;5.32;2.80;;;;;;;;;;5015568;28;20562;-62
2023/02/06 14:35:57;;;;;;;3.22;2.92;;;;;;;;;;5017135;28;20250;-63
2023/02/06 14:38:31;;;;;;;3.65;3.03;;;;;;;;;;5017612;28;20223;-63
2023/02/06 14:40:58;;;;;;;4.82;3.17;;;;;;;;;;5015400;28;20241;-61
2023/02/06 14:43:29;;;;;;;5.40;3.30;;;;;;;;;;5014582;28;20490;-63
2023/02/06 14:45:57;;;;;;;4.88;3.20;;;;;;;;;;5014158;28;20163;-63
2023/02/06 14:48:26;;;;;;;3.03;2.72;;;;;;;;;;5014010;28;20162;-62
2023/02/06 14:50:54;;;;;;;5.13;2.70;;;;;;;;;;5015112;28;20235;-63
2023/02/06 14:53:27;;;;;;;5.13;2.85;;;;;;;;;;5014864;28;20306;-63
2023/02/06 14:56:15;;;;;;;6.50;3.33;;;;;;;;;;5014345;28;20185;-62
2023/02/06 14:58:45;;;;;;;3.25;2.47;;;;;;;;;;5013863;28;20499;-63
2023/02/06 15:01:19;;;;;;;4.28;2.90;;;;;;;;;;5014152;28;20186;-62